sensor_id;sensor_type;location;lat;lon;timestamp;P1;durP1;ratioP1;P2;durP2;ratioP2
29712;SDS011;16623;53.632;10.016;2023-02-20T00:00:36;5.90;;;1.70;;
29712;SDS011;16623;53.632;10.016;2023-02-20T00:03:02;10.18;;;2.15;;
29712;SDS011;16623;53.632;10.016;2023-02-20T00:05:29;9.80;;;2.22;;
29712;SDS011;16623;53.632;10.016;2023-02-20T00:07:55;7.78;;;1.95;;
29712;SDS011;16623;53.632;10.016;2023-02-20T00:10:21;4.55;;;2.03;;
29712;SDS011;16623;53.632;10.016;2023-02-20T00:12:48;7.07;;;2.60;;
29712;SDS011;16623;53.632;10.016;2023-02-20T00:15:14;9.60;;;2.47;;
29712;SDS011;16623;53.632;10.016;2023-02-20T00:17:42;9.48;;;4.03;;
29712;SDS011;16623;53.632;10.016;2023-02-20T00:20:12;10.80;;;2.50;;
29712;SDS011;16623;53.632;10.016;2023-02-20T00:22:48;4.53;;;2.10;;
29712;SDS011;16623;53.632;10.016;2023-02-20T00:25:15;6.47;;;2.13;;
29712;SDS011;16623;53.632;10.016;2023-02-20T00:27:41;12.38;;;2.85;;
29712;SDS011;16623;53.632;10.016;2023-02-20T00:30:09;7.10;;;2.55;;
29712;SDS011;16623;53.632;10.016;2023-02-20T00:32:39;5.40;;;2.45;;
29712;SDS011;16623;53.632;10.016;2023-02-20T00:35:04;5.07;;;2.30;;
29712;SDS011;16623;53.632;10.016;2023-02-20T00:37:30;6.25;;;2.33;;
29712;SDS011;16623;53.632;10.016;2023-02-20T00:39:56;10.82;;;2.67;;
29712;SDS011;16623;53.632;10.016;2023-02-20T00:42:21;9.40;;;2.30;;
29712;SDS011;16623;53.632;10.016;2023-02-20T00:44:47;5.75;;;1.90;;
29712;SDS011;16623;53.632;10.016;2023-02-20T00:47:12;10.27;;;3.08;;
29712;SDS011;16623;53.632;10.016;2023-02-20T00:49:38;14.18;;;2.83;;
29712;SDS011;16623;53.632;10.016;2023-02-20T00:52:03;13.27;;;2.13;;
29712;SDS011;16623;53.632;10.016;2023-02-20T00:54:29;7.20;;;3.42;;
29712;SDS011;16623;53.632;10.016;2023-02-20T00:56:54;13.93;;;2.53;;
29712;SDS011;16623;53.632;10.016;2023-02-20T00:59:20;9.98;;;3.03;;
29712;SDS011;16623;53.632;10.016;2023-02-20T01:01:45;5.22;;;2.13;;
29712;SDS011;16623;53.632;10.016;2023-02-20T01:04:11;6.50;;;2.40;;
29712;SDS011;16623;53.632;10.016;2023-02-20T01:06:37;8.50;;;2.50;;
29712;SDS011;16623;53.632;10.016;2023-02-20T01:09:02;13.80;;;3.10;;
29712;SDS011;16623;53.632;10.016;2023-02-20T01:11:28;10.00;;;3.88;;
29712;SDS011;16623;53.632;10.016;2023-02-20T01:13:53;2.85;;;2.08;;
29712;SDS011;16623;53.632;10.016;2023-02-20T01:16:19;3.50;;;2.15;;
29712;SDS011;16623;53.632;10.016;2023-02-20T01:18:47;9.55;;;2.83;;
29712;SDS011;16623;53.632;10.016;2023-02-20T01:21:13;13.43;;;3.92;;
29712;SDS011;16623;53.632;10.016;2023-02-20T01:23:39;8.07;;;3.50;;
29712;SDS011;16623;53.632;10.016;2023-02-20T01:26:04;5.40;;;2.45;;
29712;SDS011;16623;53.632;10.016;2023-02-20T01:28:30;6.15;;;2.90;;
29712;SDS011;16623;53.632;10.016;2023-02-20T01:30:56;7.38;;;2.35;;
29712;SDS011;16623;53.632;10.016;2023-02-20T01:33:21;10.55;;;3.30;;
29712;SDS011;16623;53.632;10.016;2023-02-20T01:35:47;6.80;;;2.65;;
29712;SDS011;16623;53.632;10.016;2023-02-20T01:38:12;15.55;;;3.10;;
29712;SDS011;16623;53.632;10.016;2023-02-20T01:40:38;10.13;;;2.90;;
29712;SDS011;16623;53.632;10.016;2023-02-20T01:43:03;8.48;;;3.42;;
29712;SDS011;16623;53.632;10.016;2023-02-20T01:45:33;10.75;;;3.30;;
29712;SDS011;16623;53.632;10.016;2023-02-20T01:48:00;4.95;;;3.17;;
29712;SDS011;16623;53.632;10.016;2023-02-20T01:50:36;7.93;;;2.63;;
29712;SDS011;16623;53.632;10.016;2023-02-20T01:53:08;7.78;;;2.75;;
29712;SDS011;16623;53.632;10.016;2023-02-20T01:55:47;7.40;;;3.05;;
29712;SDS011;16623;53.632;10.016;2023-02-20T01:58:39;5.43;;;3.08;;
29712;SDS011;16623;53.632;10.016;2023-02-20T02:01:08;5.93;;;2.70;;
29712;SDS011;16623;53.632;10.016;2023-02-20T02:03:36;12.50;;;3.45;;
29712;SDS011;16623;53.632;10.016;2023-02-20T02:06:06;6.40;;;3.47;;
29712;SDS011;16623;53.632;10.016;2023-02-20T02:08:33;6.95;;;3.33;;
29712;SDS011;16623;53.632;10.016;2023-02-20T02:11:03;5.50;;;2.75;;
29712;SDS011;16623;53.632;10.016;2023-02-20T02:13:31;8.02;;;3.20;;
29712;SDS011;16623;53.632;10.016;2023-02-20T02:27:21;7.50;;;3.05;;
29712;SDS011;16623;53.632;10.016;2023-02-20T02:35:28;5.40;;;3.83;;
29712;SDS011;16623;53.632;10.016;2023-02-20T02:38:24;10.50;;;4.95;;
29712;SDS011;16623;53.632;10.016;2023-02-20T02:41:07;5.78;;;3.88;;
29712;SDS011;16623;53.632;10.016;2023-02-20T02:48:53;7.78;;;3.78;;
29712;SDS011;16623;53.632;10.016;2023-02-20T02:51:26;9.57;;;5.20;;
29712;SDS011;16623;53.632;10.016;2023-02-20T02:54:11;7.38;;;4.60;;
29712;SDS011;16623;53.632;10.016;2023-02-20T02:56:44;9.50;;;4.43;;
29712;SDS011;16623;53.632;10.016;2023-02-20T02:59:13;8.82;;;5.25;;
29712;SDS011;16623;53.632;10.016;2023-02-20T03:01:47;9.70;;;5.18;;
29712;SDS011;16623;53.632;10.016;2023-02-20T03:04:15;7.18;;;5.40;;
29712;SDS011;16623;53.632;10.016;2023-02-20T03:06:47;10.18;;;4.93;;
29712;SDS011;16623;53.632;10.016;2023-02-20T03:09:18;10.45;;;5.47;;
29712;SDS011;16623;53.632;10.016;2023-02-20T03:11:49;9.30;;;5.40;;
29712;SDS011;16623;53.632;10.016;2023-02-20T03:14:20;9.85;;;5.28;;
29712;SDS011;16623;53.632;10.016;2023-02-20T03:19:47;9.40;;;5.63;;
29712;SDS011;16623;53.632;10.016;2023-02-20T03:22:18;10.68;;;5.55;;
29712;SDS011;16623;53.632;10.016;2023-02-20T03:24:58;10.90;;;5.13;;
29712;SDS011;16623;53.632;10.016;2023-02-20T03:27:39;8.52;;;5.80;;
29712;SDS011;16623;53.632;10.016;2023-02-20T03:30:15;15.15;;;6.55;;
29712;SDS011;16623;53.632;10.016;2023-02-20T03:32:52;7.75;;;5.22;;
29712;SDS011;16623;53.632;10.016;2023-02-20T03:35:41;9.27;;;5.35;;
29712;SDS011;16623;53.632;10.016;2023-02-20T03:38:28;10.95;;;7.45;;
29712;SDS011;16623;53.632;10.016;2023-02-20T03:41:17;9.25;;;4.93;;
29712;SDS011;16623;53.632;10.016;2023-02-20T03:44:03;13.43;;;5.97;;
29712;SDS011;16623;53.632;10.016;2023-02-20T03:46:31;8.02;;;5.53;;
29712;SDS011;16623;53.632;10.016;2023-02-20T03:49:05;9.10;;;5.78;;
29712;SDS011;16623;53.632;10.016;2023-02-20T03:51:35;11.85;;;6.00;;
29712;SDS011;16623;53.632;10.016;2023-02-20T03:54:20;11.73;;;5.88;;
29712;SDS011;16623;53.632;10.016;2023-02-20T03:56:46;13.63;;;6.65;;
29712;SDS011;16623;53.632;10.016;2023-02-20T03:59:36;11.88;;;6.15;;
29712;SDS011;16623;53.632;10.016;2023-02-20T04:02:13;9.77;;;6.03;;
29712;SDS011;16623;53.632;10.016;2023-02-20T04:04:53;11.38;;;5.97;;
29712;SDS011;16623;53.632;10.016;2023-02-20T04:07:24;12.07;;;5.70;;
29712;SDS011;16623;53.632;10.016;2023-02-20T04:10:00;10.43;;;6.10;;
29712;SDS011;16623;53.632;10.016;2023-02-20T04:12:30;10.65;;;5.90;;
29712;SDS011;16623;53.632;10.016;2023-02-20T04:15:00;13.68;;;6.72;;
29712;SDS011;16623;53.632;10.016;2023-02-20T04:17:34;9.38;;;5.75;;
29712;SDS011;16623;53.632;10.016;2023-02-20T04:20:04;12.10;;;6.30;;
29712;SDS011;16623;53.632;10.016;2023-02-20T04:22:31;12.82;;;6.00;;
29712;SDS011;16623;53.632;10.016;2023-02-20T04:25:05;12.63;;;6.07;;
29712;SDS011;16623;53.632;10.016;2023-02-20T04:27:40;8.43;;;6.10;;
29712;SDS011;16623;53.632;10.016;2023-02-20T04:30:05;11.05;;;6.55;;
29712;SDS011;16623;53.632;10.016;2023-02-20T04:32:31;12.18;;;6.97;;
29712;SDS011;16623;53.632;10.016;2023-02-20T04:34:57;12.18;;;6.78;;
29712;SDS011;16623;53.632;10.016;2023-02-20T04:37:23;11.75;;;6.90;;
29712;SDS011;16623;53.632;10.016;2023-02-20T04:39:48;11.38;;;6.55;;
29712;SDS011;16623;53.632;10.016;2023-02-20T04:42:14;12.52;;;6.72;;
29712;SDS011;16623;53.632;10.016;2023-02-20T04:44:39;12.50;;;7.00;;
29712;SDS011;16623;53.632;10.016;2023-02-20T04:47:07;10.73;;;6.85;;
29712;SDS011;16623;53.632;10.016;2023-02-20T04:49:39;11.35;;;7.13;;
29712;SDS011;16623;53.632;10.016;2023-02-20T04:52:04;16.60;;;7.45;;
29712;SDS011;16623;53.632;10.016;2023-02-20T04:54:30;15.07;;;7.50;;
29712;SDS011;16623;53.632;10.016;2023-02-20T04:56:56;16.08;;;7.57;;
29712;SDS011;16623;53.632;10.016;2023-02-20T04:59:21;12.52;;;7.65;;
29712;SDS011;16623;53.632;10.016;2023-02-20T05:01:47;11.38;;;7.20;;
29712;SDS011;16623;53.632;10.016;2023-02-20T05:04:15;12.63;;;7.60;;
29712;SDS011;16623;53.632;10.016;2023-02-20T05:06:43;17.73;;;10.30;;
29712;SDS011;16623;53.632;10.016;2023-02-20T05:09:13;17.23;;;8.98;;
29712;SDS011;16623;53.632;10.016;2023-02-20T05:11:38;14.93;;;7.22;;
29712;SDS011;16623;53.632;10.016;2023-02-20T05:14:04;14.90;;;8.00;;
29712;SDS011;16623;53.632;10.016;2023-02-20T05:16:30;15.25;;;8.40;;
29712;SDS011;16623;53.632;10.016;2023-02-20T05:18:56;18.65;;;9.82;;
29712;SDS011;16623;53.632;10.016;2023-02-20T05:21:21;17.83;;;9.35;;
29712;SDS011;16623;53.632;10.016;2023-02-20T05:24:05;13.32;;;8.85;;
29712;SDS011;16623;53.632;10.016;2023-02-20T05:26:31;17.52;;;9.75;;
29712;SDS011;16623;53.632;10.016;2023-02-20T05:28:56;15.82;;;9.50;;
29712;SDS011;16623;53.632;10.016;2023-02-20T05:31:23;18.67;;;10.23;;
29712;SDS011;16623;53.632;10.016;2023-02-20T05:33:48;15.25;;;9.10;;
29712;SDS011;16623;53.632;10.016;2023-02-20T05:36:15;18.17;;;9.13;;
29712;SDS011;16623;53.632;10.016;2023-02-20T05:38:41;17.35;;;9.68;;
29712;SDS011;16623;53.632;10.016;2023-02-20T05:41:12;17.83;;;9.85;;
29712;SDS011;16623;53.632;10.016;2023-02-20T05:43:39;21.92;;;10.02;;
29712;SDS011;16623;53.632;10.016;2023-02-20T05:46:04;18.77;;;9.98;;
29712;SDS011;16623;53.632;10.016;2023-02-20T05:48:30;18.17;;;10.70;;
29712;SDS011;16623;53.632;10.016;2023-02-20T05:50:56;16.38;;;10.35;;
29712;SDS011;16623;53.632;10.016;2023-02-20T05:53:21;17.58;;;10.88;;
29712;SDS011;16623;53.632;10.016;2023-02-20T05:55:47;18.45;;;10.77;;
29712;SDS011;16623;53.632;10.016;2023-02-20T05:58:12;19.00;;;10.13;;
29712;SDS011;16623;53.632;10.016;2023-02-20T06:00:38;21.05;;;10.70;;
29712;SDS011;16623;53.632;10.016;2023-02-20T06:03:07;14.43;;;9.35;;
29712;SDS011;16623;53.632;10.016;2023-02-20T06:05:34;15.80;;;10.45;;
29712;SDS011;16623;53.632;10.016;2023-02-20T06:07:59;20.02;;;10.35;;
29712;SDS011;16623;53.632;10.016;2023-02-20T06:10:25;18.52;;;11.00;;
29712;SDS011;16623;53.632;10.016;2023-02-20T06:12:51;19.92;;;10.55;;
29712;SDS011;16623;53.632;10.016;2023-02-20T06:15:16;20.80;;;10.95;;
29712;SDS011;16623;53.632;10.016;2023-02-20T06:17:42;21.30;;;11.55;;
29712;SDS011;16623;53.632;10.016;2023-02-20T06:20:08;19.50;;;10.38;;
29712;SDS011;16623;53.632;10.016;2023-02-20T06:22:34;20.88;;;10.52;;
29712;SDS011;16623;53.632;10.016;2023-02-20T06:24:59;18.70;;;11.27;;
29712;SDS011;16623;53.632;10.016;2023-02-20T06:27:25;19.48;;;11.80;;
29712;SDS011;16623;53.632;10.016;2023-02-20T06:29:50;19.73;;;11.68;;
29712;SDS011;16623;53.632;10.016;2023-02-20T06:32:17;26.42;;;13.15;;
29712;SDS011;16623;53.632;10.016;2023-02-20T06:34:43;19.83;;;11.98;;
29712;SDS011;16623;53.632;10.016;2023-02-20T06:37:09;24.58;;;12.48;;
29712;SDS011;16623;53.632;10.016;2023-02-20T06:39:35;18.75;;;11.27;;
29712;SDS011;16623;53.632;10.016;2023-02-20T06:42:01;19.90;;;11.18;;
29712;SDS011;16623;53.632;10.016;2023-02-20T06:44:28;17.55;;;10.20;;
29712;SDS011;16623;53.632;10.016;2023-02-20T06:46:54;19.73;;;11.95;;
29712;SDS011;16623;53.632;10.016;2023-02-20T06:49:20;25.05;;;13.20;;
29712;SDS011;16623;53.632;10.016;2023-02-20T06:51:46;23.42;;;11.45;;
29712;SDS011;16623;53.632;10.016;2023-02-20T06:54:12;14.20;;;8.73;;
29712;SDS011;16623;53.632;10.016;2023-02-20T06:56:37;19.10;;;12.70;;
29712;SDS011;16623;53.632;10.016;2023-02-20T06:59:04;28.23;;;13.18;;
29712;SDS011;16623;53.632;10.016;2023-02-20T07:01:36;18.63;;;10.88;;
29712;SDS011;16623;53.632;10.016;2023-02-20T07:04:04;23.42;;;11.43;;
29712;SDS011;16623;53.632;10.016;2023-02-20T07:06:30;22.67;;;11.90;;
29712;SDS011;16623;53.632;10.016;2023-02-20T07:08:55;24.55;;;12.48;;
29712;SDS011;16623;53.632;10.016;2023-02-20T07:11:21;22.45;;;11.07;;
29712;SDS011;16623;53.632;10.016;2023-02-20T07:13:47;18.85;;;10.30;;
29712;SDS011;16623;53.632;10.016;2023-02-20T07:16:13;22.65;;;12.85;;
29712;SDS011;16623;53.632;10.016;2023-02-20T07:18:39;30.05;;;14.18;;
29712;SDS011;16623;53.632;10.016;2023-02-20T07:21:05;28.02;;;13.43;;
29712;SDS011;16623;53.632;10.016;2023-02-20T07:23:30;27.23;;;12.40;;
29712;SDS011;16623;53.632;10.016;2023-02-20T07:25:56;20.90;;;12.95;;
29712;SDS011;16623;53.632;10.016;2023-02-20T07:28:22;26.35;;;12.43;;
29712;SDS011;16623;53.632;10.016;2023-02-20T07:30:48;29.40;;;14.07;;
29712;SDS011;16623;53.632;10.016;2023-02-20T07:33:14;27.42;;;14.25;;
29712;SDS011;16623;53.632;10.016;2023-02-20T07:35:41;28.80;;;14.63;;
29712;SDS011;16623;53.632;10.016;2023-02-20T07:38:07;25.75;;;13.48;;
29712;SDS011;16623;53.632;10.016;2023-02-20T07:40:32;32.25;;;16.13;;
29712;SDS011;16623;53.632;10.016;2023-02-20T07:42:58;27.42;;;14.73;;
29712;SDS011;16623;53.632;10.016;2023-02-20T07:45:23;33.25;;;13.82;;
29712;SDS011;16623;53.632;10.016;2023-02-20T07:47:49;26.73;;;14.48;;
29712;SDS011;16623;53.632;10.016;2023-02-20T07:50:15;27.98;;;16.40;;
29712;SDS011;16623;53.632;10.016;2023-02-20T07:52:41;25.98;;;15.00;;
29712;SDS011;16623;53.632;10.016;2023-02-20T07:55:08;28.42;;;15.02;;
29712;SDS011;16623;53.632;10.016;2023-02-20T07:57:34;23.98;;;15.90;;
29712;SDS011;16623;53.632;10.016;2023-02-20T08:00:01;30.73;;;16.77;;
29712;SDS011;16623;53.632;10.016;2023-02-20T08:02:28;38.35;;;16.90;;
29712;SDS011;16623;53.632;10.016;2023-02-20T08:04:53;36.45;;;16.77;;
29712;SDS011;16623;53.632;10.016;2023-02-20T08:07:19;31.02;;;15.52;;
29712;SDS011;16623;53.632;10.016;2023-02-20T08:09:47;29.90;;;17.00;;
29712;SDS011;16623;53.632;10.016;2023-02-20T08:12:13;30.70;;;17.17;;
29712;SDS011;16623;53.632;10.016;2023-02-20T08:14:39;25.80;;;14.90;;
29712;SDS011;16623;53.632;10.016;2023-02-20T08:17:05;32.75;;;16.67;;
29712;SDS011;16623;53.632;10.016;2023-02-20T08:19:30;31.05;;;17.77;;
29712;SDS011;16623;53.632;10.016;2023-02-20T08:21:56;22.98;;;15.45;;
29712;SDS011;16623;53.632;10.016;2023-02-20T08:24:22;30.77;;;17.45;;
29712;SDS011;16623;53.632;10.016;2023-02-20T08:26:48;28.48;;;18.10;;
29712;SDS011;16623;53.632;10.016;2023-02-20T08:29:14;29.35;;;18.13;;
29712;SDS011;16623;53.632;10.016;2023-02-20T08:31:41;30.83;;;18.20;;
29712;SDS011;16623;53.632;10.016;2023-02-20T08:34:07;32.50;;;18.20;;
29712;SDS011;16623;53.632;10.016;2023-02-20T08:36:33;35.25;;;18.48;;
29712;SDS011;16623;53.632;10.016;2023-02-20T08:38:58;26.17;;;17.42;;
29712;SDS011;16623;53.632;10.016;2023-02-20T08:41:24;35.88;;;17.70;;
29712;SDS011;16623;53.632;10.016;2023-02-20T08:43:50;31.73;;;17.90;;
29712;SDS011;16623;53.632;10.016;2023-02-20T08:46:15;44.08;;;19.35;;
29712;SDS011;16623;53.632;10.016;2023-02-20T08:48:41;40.00;;;21.42;;
29712;SDS011;16623;53.632;10.016;2023-02-20T08:51:07;35.58;;;20.42;;
29712;SDS011;16623;53.632;10.016;2023-02-20T08:53:33;34.85;;;18.48;;
29712;SDS011;16623;53.632;10.016;2023-02-20T08:55:59;38.40;;;19.50;;
29712;SDS011;16623;53.632;10.016;2023-02-20T08:58:25;39.60;;;19.75;;
29712;SDS011;16623;53.632;10.016;2023-02-20T09:00:51;31.50;;;19.52;;
29712;SDS011;16623;53.632;10.016;2023-02-20T09:03:16;40.40;;;20.17;;
29712;SDS011;16623;53.632;10.016;2023-02-20T09:05:42;36.45;;;18.52;;
29712;SDS011;16623;53.632;10.016;2023-02-20T09:08:08;37.88;;;18.95;;
29712;SDS011;16623;53.632;10.016;2023-02-20T09:10:34;34.80;;;18.63;;
29712;SDS011;16623;53.632;10.016;2023-02-20T09:13:00;32.42;;;18.23;;
29712;SDS011;16623;53.632;10.016;2023-02-20T09:15:26;31.55;;;17.20;;
29712;SDS011;16623;53.632;10.016;2023-02-20T09:17:53;34.97;;;17.83;;
29712;SDS011;16623;53.632;10.016;2023-02-20T09:20:20;38.25;;;18.70;;
29712;SDS011;16623;53.632;10.016;2023-02-20T09:22:46;42.22;;;19.45;;
29712;SDS011;16623;53.632;10.016;2023-02-20T09:25:12;39.10;;;19.90;;
29712;SDS011;16623;53.632;10.016;2023-02-20T09:27:38;37.17;;;18.48;;
29712;SDS011;16623;53.632;10.016;2023-02-20T09:30:04;41.15;;;19.08;;
29712;SDS011;16623;53.632;10.016;2023-02-20T09:32:30;36.63;;;18.92;;
29712;SDS011;16623;53.632;10.016;2023-02-20T09:34:55;38.33;;;19.00;;
29712;SDS011;16623;53.632;10.016;2023-02-20T09:37:22;29.30;;;13.48;;
29712;SDS011;16623;53.632;10.016;2023-02-20T09:39:47;38.03;;;17.88;;
29712;SDS011;16623;53.632;10.016;2023-02-20T09:42:16;46.22;;;20.45;;
29712;SDS011;16623;53.632;10.016;2023-02-20T09:45:05;41.30;;;20.65;;
29712;SDS011;16623;53.632;10.016;2023-02-20T09:50:14;43.92;;;18.45;;
29712;SDS011;16623;53.632;10.016;2023-02-20T09:52:47;51.55;;;19.92;;
29712;SDS011;16623;53.632;10.016;2023-02-20T09:55:18;45.22;;;18.88;;
29712;SDS011;16623;53.632;10.016;2023-02-20T09:57:47;35.80;;;18.02;;
29712;SDS011;16623;53.632;10.016;2023-02-20T10:00:20;37.83;;;17.92;;
29712;SDS011;16623;53.632;10.016;2023-02-20T10:03:05;31.95;;;16.58;;
29712;SDS011;16623;53.632;10.016;2023-02-20T10:05:50;35.00;;;15.88;;
29712;SDS011;16623;53.632;10.016;2023-02-20T10:08:20;36.58;;;17.30;;
29712;SDS011;16623;53.632;10.016;2023-02-20T10:10:47;36.72;;;16.40;;
29712;SDS011;16623;53.632;10.016;2023-02-20T10:13:21;30.70;;;13.23;;
29712;SDS011;16623;53.632;10.016;2023-02-20T10:16:18;45.53;;;16.40;;
29712;SDS011;16623;53.632;10.016;2023-02-20T10:24:41;29.15;;;13.45;;
29712;SDS011;16623;53.632;10.016;2023-02-20T10:30:11;33.92;;;15.55;;
29712;SDS011;16623;53.632;10.016;2023-02-20T10:32:42;28.83;;;13.82;;
29712;SDS011;16623;53.632;10.016;2023-02-20T10:35:35;24.92;;;12.13;;
29712;SDS011;16623;53.632;10.016;2023-02-20T10:38:08;26.42;;;10.80;;
29712;SDS011;16623;53.632;10.016;2023-02-20T10:40:42;21.40;;;10.63;;
29712;SDS011;16623;53.632;10.016;2023-02-20T10:43:14;24.50;;;11.18;;
29712;SDS011;16623;53.632;10.016;2023-02-20T10:46:03;19.52;;;9.85;;
29712;SDS011;16623;53.632;10.016;2023-02-20T10:48:52;17.55;;;7.38;;
29712;SDS011;16623;53.632;10.016;2023-02-20T10:51:25;19.15;;;8.90;;
29712;SDS011;16623;53.632;10.016;2023-02-20T10:59:01;14.25;;;6.53;;
29712;SDS011;16623;53.632;10.016;2023-02-20T11:01:37;26.38;;;8.98;;
29712;SDS011;16623;53.632;10.016;2023-02-20T11:04:17;18.58;;;7.28;;
29712;SDS011;16623;53.632;10.016;2023-02-20T11:06:55;15.27;;;6.78;;
29712;SDS011;16623;53.632;10.016;2023-02-20T11:09:22;16.75;;;8.15;;
29712;SDS011;16623;53.632;10.016;2023-02-20T11:11:49;25.08;;;7.30;;
29712;SDS011;16623;53.632;10.016;2023-02-20T11:14:20;15.98;;;7.25;;
29712;SDS011;16623;53.632;10.016;2023-02-20T11:19:56;16.88;;;5.07;;
29712;SDS011;16623;53.632;10.016;2023-02-20T11:27:51;17.80;;;7.00;;
29712;SDS011;16623;53.632;10.016;2023-02-20T11:35:57;20.45;;;6.95;;
29712;SDS011;16623;53.632;10.016;2023-02-20T11:38:35;18.52;;;6.65;;
29712;SDS011;16623;53.632;10.016;2023-02-20T11:41:03;21.73;;;6.18;;
29712;SDS011;16623;53.632;10.016;2023-02-20T11:43:48;12.55;;;5.55;;
29712;SDS011;16623;53.632;10.016;2023-02-20T11:46:31;13.18;;;4.93;;
29712;SDS011;16623;53.632;10.016;2023-02-20T11:51:34;16.20;;;5.70;;
29712;SDS011;16623;53.632;10.016;2023-02-20T11:59:46;8.27;;;2.95;;
29712;SDS011;16623;53.632;10.016;2023-02-20T12:04:45;13.35;;;3.58;;
29712;SDS011;16623;53.632;10.016;2023-02-20T12:07:27;13.90;;;4.47;;
29712;SDS011;16623;53.632;10.016;2023-02-20T12:09:58;16.67;;;4.07;;
29712;SDS011;16623;53.632;10.016;2023-02-20T12:12:34;17.75;;;4.93;;
29712;SDS011;16623;53.632;10.016;2023-02-20T12:15:00;11.50;;;3.70;;
29712;SDS011;16623;53.632;10.016;2023-02-20T12:17:34;11.27;;;4.00;;
29712;SDS011;16623;53.632;10.016;2023-02-20T12:20:18;10.20;;;4.10;;
29712;SDS011;16623;53.632;10.016;2023-02-20T12:23:31;12.10;;;4.18;;
29712;SDS011;16623;53.632;10.016;2023-02-20T12:26:04;10.05;;;3.95;;
29712;SDS011;16623;53.632;10.016;2023-02-20T12:28:49;13.02;;;4.78;;
29712;SDS011;16623;53.632;10.016;2023-02-20T12:31:19;14.20;;;4.47;;
29712;SDS011;16623;53.632;10.016;2023-02-20T12:33:56;10.20;;;4.40;;
29712;SDS011;16623;53.632;10.016;2023-02-20T12:36:42;12.40;;;4.90;;
29712;SDS011;16623;53.632;10.016;2023-02-20T12:39:20;7.03;;;3.53;;
29712;SDS011;16623;53.632;10.016;2023-02-20T12:45:15;13.10;;;3.53;;
29712;SDS011;16623;53.632;10.016;2023-02-20T12:47:46;6.10;;;2.42;;
29712;SDS011;16623;53.632;10.016;2023-02-20T13:01:18;14.75;;;4.05;;
29712;SDS011;16623;53.632;10.016;2023-02-20T13:06:20;12.57;;;3.60;;
29712;SDS011;16623;53.632;10.016;2023-02-20T13:08:54;9.85;;;3.65;;
29712;SDS011;16623;53.632;10.016;2023-02-20T13:11:29;8.27;;;4.00;;
29712;SDS011;16623;53.632;10.016;2023-02-20T13:14:03;10.50;;;3.25;;
29712;SDS011;16623;53.632;10.016;2023-02-20T13:16:56;11.60;;;3.08;;
29712;SDS011;16623;53.632;10.016;2023-02-20T13:19:55;12.93;;;3.63;;
29712;SDS011;16623;53.632;10.016;2023-02-20T13:22:42;10.82;;;4.35;;
29712;SDS011;16623;53.632;10.016;2023-02-20T13:28:14;12.60;;;3.63;;
29712;SDS011;16623;53.632;10.016;2023-02-20T13:33:32;9.75;;;3.15;;
29712;SDS011;16623;53.632;10.016;2023-02-20T13:36:00;10.77;;;4.88;;
29712;SDS011;16623;53.632;10.016;2023-02-20T13:38:27;12.32;;;4.07;;
29712;SDS011;16623;53.632;10.016;2023-02-20T13:43:26;9.82;;;3.42;;
29712;SDS011;16623;53.632;10.016;2023-02-20T13:48:45;7.75;;;3.97;;
29712;SDS011;16623;53.632;10.016;2023-02-20T13:51:33;19.20;;;4.90;;
29712;SDS011;16623;53.632;10.016;2023-02-20T13:54:20;15.63;;;5.47;;
29712;SDS011;16623;53.632;10.016;2023-02-20T13:56:57;12.40;;;4.35;;
29712;SDS011;16623;53.632;10.016;2023-02-20T13:59:28;10.55;;;3.67;;
29712;SDS011;16623;53.632;10.016;2023-02-20T14:02:02;15.98;;;3.97;;
29712;SDS011;16623;53.632;10.016;2023-02-20T14:04:36;8.60;;;3.35;;
29712;SDS011;16623;53.632;10.016;2023-02-20T14:07:02;13.98;;;4.55;;
29712;SDS011;16623;53.632;10.016;2023-02-20T14:09:28;10.88;;;4.05;;
29712;SDS011;16623;53.632;10.016;2023-02-20T14:12:01;11.40;;;4.53;;
29712;SDS011;16623;53.632;10.016;2023-02-20T14:14:40;11.02;;;3.92;;
29712;SDS011;16623;53.632;10.016;2023-02-20T14:17:12;16.35;;;6.53;;
29712;SDS011;16623;53.632;10.016;2023-02-20T14:19:48;9.98;;;4.18;;
29712;SDS011;16623;53.632;10.016;2023-02-20T14:25:22;13.32;;;4.60;;
29712;SDS011;16623;53.632;10.016;2023-02-20T14:27:47;9.85;;;3.75;;
29712;SDS011;16623;53.632;10.016;2023-02-20T14:30:15;11.55;;;4.22;;
29712;SDS011;16623;53.632;10.016;2023-02-20T14:32:51;14.70;;;3.97;;
29712;SDS011;16623;53.632;10.016;2023-02-20T14:35:31;12.32;;;3.85;;
29712;SDS011;16623;53.632;10.016;2023-02-20T14:41:16;13.23;;;5.13;;
29712;SDS011;16623;53.632;10.016;2023-02-20T14:43:56;11.93;;;4.70;;
29712;SDS011;16623;53.632;10.016;2023-02-20T14:46:25;9.05;;;3.78;;
29712;SDS011;16623;53.632;10.016;2023-02-20T14:49:02;12.73;;;3.78;;
29712;SDS011;16623;53.632;10.016;2023-02-20T14:51:30;14.65;;;3.45;;
29712;SDS011;16623;53.632;10.016;2023-02-20T14:53:57;16.58;;;4.53;;
29712;SDS011;16623;53.632;10.016;2023-02-20T14:56:34;12.98;;;3.05;;
29712;SDS011;16623;53.632;10.016;2023-02-20T15:01:58;9.88;;;3.47;;
29712;SDS011;16623;53.632;10.016;2023-02-20T15:04:37;15.43;;;3.63;;
29712;SDS011;16623;53.632;10.016;2023-02-20T15:07:34;17.27;;;5.35;;
29712;SDS011;16623;53.632;10.016;2023-02-20T15:10:03;12.85;;;4.30;;
29712;SDS011;16623;53.632;10.016;2023-02-20T15:12:35;14.50;;;3.55;;
29712;SDS011;16623;53.632;10.016;2023-02-20T15:15:08;16.38;;;4.65;;
29712;SDS011;16623;53.632;10.016;2023-02-20T15:17:38;13.63;;;4.30;;
29712;SDS011;16623;53.632;10.016;2023-02-20T15:25:40;17.42;;;3.65;;
29712;SDS011;16623;53.632;10.016;2023-02-20T15:28:22;19.40;;;3.65;;
29712;SDS011;16623;53.632;10.016;2023-02-20T15:33:41;12.55;;;4.55;;
29712;SDS011;16623;53.632;10.016;2023-02-20T15:36:11;17.23;;;4.70;;
29712;SDS011;16623;53.632;10.016;2023-02-20T15:38:39;17.95;;;4.40;;
29712;SDS011;16623;53.632;10.016;2023-02-20T15:41:05;11.70;;;4.25;;
29712;SDS011;16623;53.632;10.016;2023-02-20T15:43:32;17.05;;;4.95;;
29712;SDS011;16623;53.632;10.016;2023-02-20T15:45:58;22.20;;;6.00;;
29712;SDS011;16623;53.632;10.016;2023-02-20T15:48:24;16.70;;;4.85;;
29712;SDS011;16623;53.632;10.016;2023-02-20T15:50:50;13.13;;;5.15;;
29712;SDS011;16623;53.632;10.016;2023-02-20T15:53:19;18.20;;;4.40;;
29712;SDS011;16623;53.632;10.016;2023-02-20T15:55:48;16.67;;;4.80;;
29712;SDS011;16623;53.632;10.016;2023-02-20T15:58:35;21.35;;;7.18;;
29712;SDS011;16623;53.632;10.016;2023-02-20T16:01:03;15.70;;;4.38;;
29712;SDS011;16623;53.632;10.016;2023-02-20T16:03:30;17.70;;;5.32;;
29712;SDS011;16623;53.632;10.016;2023-02-20T16:05:57;17.85;;;4.95;;
29712;SDS011;16623;53.632;10.016;2023-02-20T16:08:23;11.23;;;4.25;;
29712;SDS011;16623;53.632;10.016;2023-02-20T16:10:50;12.80;;;4.95;;
29712;SDS011;16623;53.632;10.016;2023-02-20T16:15:52;10.63;;;4.30;;
29712;SDS011;16623;53.632;10.016;2023-02-20T16:18:18;15.45;;;6.85;;
29712;SDS011;16623;53.632;10.016;2023-02-20T16:20:43;16.25;;;6.47;;
29712;SDS011;16623;53.632;10.016;2023-02-20T16:23:09;19.27;;;5.50;;
29712;SDS011;16623;53.632;10.016;2023-02-20T16:25:34;18.65;;;5.50;;
29712;SDS011;16623;53.632;10.016;2023-02-20T16:28:00;11.52;;;4.28;;
29712;SDS011;16623;53.632;10.016;2023-02-20T16:30:32;11.65;;;3.88;;
29712;SDS011;16623;53.632;10.016;2023-02-20T16:33:02;15.07;;;4.93;;